カンゲルルススアーク の空港の天気 - METARとTAF

カンゲルルススアーク空港 ( BGSF / SFJ ) - グリーンランド カンゲルルススアーク
飛行場実況気象(Metar)
観測時間08/11 04:50 WGST (08/11 06:50 UTC)
風向・風速北東 4m/s
視程-
天気現象
全天の8割程度の雲 雲底高度 3050m
気温3℃
湿度75%
気圧1008hPa
METARBGSF 110650Z AUTO 05007KT 9999NDV BKN100/// 03/M01 Q1008
過去の天気等 Google飛行場航空写真 Wunderground天気予報

過去48時間のMETAR

飛行場予報(TAF)
発表時間: 8/11 03:01 WGST (8/11 05:01 UTC)
予報対象時間: 11日4時 WGST ~ 11日21時 WGST
風向・風速東北東 4m/s
視程10km以上
少しの雲 雲底高度 910m
全天の4割程度の雲 雲底高度 2130m
11日4時 WGST ~ 11日21時 WGST に一時的に
全天の8割程度の雲 雲底高度 2130m
TAF BGSF 110501Z 1106/1123 06008KT 9999 FEW030 SCT070
TEMPO 1106/1123 BKN070